Time;durP1;ratioP1;P1;durP2;ratioP2;P2;SDS_P1;SDS_P2;PMS_P1;PMS_P2;Temp;Humidity;BMP_temperature;BMP_pressure;BME280_temperature;BME280_humidity;BME280_pressure;Samples;Min_cycle;Max_cycle;Signal;HPM_P1;HPM_P2
2022/03/08 00:01:41;;;;;;;15.43;8.18;;;1.50;99.90;;;;;;5068233;28;20045;-80
2022/03/08 00:04:07;;;;;;;11.75;6.78;;;1.50;99.90;;;;;;5053283;28;20041;-81
2022/03/08 00:06:32;;;;;;;6.95;5.30;;;3.00;99.90;;;;;;5071278;28;20443;-80
2022/03/08 00:08:58;;;;;;;7.82;4.80;;;1.50;99.90;;;;;;5069937;28;20476;-81
2022/03/08 00:11:24;;;;;;;8.27;4.90;;;1.50;99.90;;;;;;5068429;28;20123;-80
2022/03/08 00:13:53;;;;;;;6.28;4.57;;;1.60;99.90;;;;;;5051856;28;20274;-79
2022/03/08 00:16:19;;;;;;;7.18;4.55;;;1.60;99.90;;;;;;5068297;28;20515;-81
2022/03/08 00:18:45;;;;;;;7.57;4.40;;;1.60;99.90;;;;;;5068507;28;20057;-81
2022/03/08 00:21:11;;;;;;;7.43;4.68;;;1.70;99.90;;;;;;5050959;28;20507;-80
2022/03/08 00:23:37;;;;;;;7.43;5.05;;;1.70;99.90;;;;;;5071316;28;20051;-79
2022/03/08 00:26:03;;;;;;;7.72;4.07;;;1.60;99.90;;;;;;5052216;28;20040;-81
2022/03/08 00:28:29;;;;;;;7.05;4.68;;;1.60;99.90;;;;;;5068805;28;20057;-80
2022/03/08 00:30:56;;;;;;;7.22;4.85;;;1.70;99.90;;;;;;5066933;28;20510;-80
2022/03/08 00:33:21;;;;;;;8.57;5.47;;;1.60;99.90;;;;;;5067697;28;20123;-81
2022/03/08 00:35:47;;;;;;;9.35;4.93;;;1.60;99.90;;;;;;5067493;28;20123;-80
2022/03/08 00:38:13;;;;;;;5.50;4.32;;;1.60;99.90;;;;;;5068153;28;20110;-81
2022/03/08 00:40:39;;;;;;;8.15;4.82;;;1.50;99.90;;;;;;5051864;28;20051;-81
2022/03/08 00:43:05;;;;;;;11.20;4.90;;;1.50;99.90;;;;;;5066222;28;20044;-80
2022/03/08 00:45:30;;;;;;;6.45;5.40;;;1.30;99.90;;;;;;5051658;28;20036;-80
2022/03/08 00:47:56;;;;;;;6.82;4.78;;;1.30;99.90;;;;;;5067649;28;20068;-81
2022/03/08 00:50:25;;;;;;;6.75;5.05;;;1.20;99.90;;;;;;5068884;28;20491;-80
2022/03/08 00:52:51;;;;;;;8.00;5.40;;;1.60;99.90;;;;;;5066945;28;20044;-80
2022/03/08 00:55:19;;;;;;;8.80;5.43;;;1.00;99.90;;;;;;5065209;28;20049;-81
2022/03/08 00:57:45;;;;;;;7.03;5.32;;;1.00;99.90;;;;;;5059084;28;20098;-80
2022/03/08 01:00:13;;;;;;;9.90;5.20;;;3.20;99.90;;;;;;5061766;28;20049;-80
2022/03/08 01:02:39;;;;;;;9.52;5.22;;;0.90;99.90;;;;;;5061121;28;20481;-79
2022/03/08 01:05:06;;;;;;;9.45;5.53;;;0.90;99.90;;;;;;5065740;28;20044;-80
2022/03/08 01:07:31;;;;;;;5.47;3.97;;;0.90;99.90;;;;;;5064850;28;20040;-80
2022/03/08 01:09:57;;;;;;;12.25;5.45;;;1.60;99.90;;;;;;5065022;28;20137;-80
2022/03/08 01:12:23;;;;;;;7.55;5.30;;;0.90;99.90;;;;;;5050399;28;20075;-80
2022/03/08 01:14:49;;;;;;;8.00;4.78;;;0.90;99.90;;;;;;5062966;28;20123;-80
2022/03/08 01:17:15;;;;;;;8.93;5.10;;;0.80;99.90;;;;;;5062358;28;20464;-80
2022/03/08 01:19:41;;;;;;;9.25;5.38;;;0.70;99.90;;;;;;5062920;28;20123;-80
2022/03/08 01:22:06;;;;;;;6.97;4.70;;;0.60;99.90;;;;;;5065230;28;20032;-80
2022/03/08 01:24:32;;;;;;;7.63;5.00;;;0.60;99.90;;;;;;5060667;28;20041;-82
2022/03/08 01:26:58;;;;;;;6.40;5.07;;;1.10;99.90;;;;;;5060344;28;20503;-80
2022/03/08 01:29:25;;;;;;;9.68;4.80;;;1.30;99.90;;;;;;5062210;28;20486;-80
2022/03/08 01:31:50;;;;;;;7.35;5.43;;;0.60;99.90;;;;;;5049362;28;20127;-80
2022/03/08 01:34:16;;;;;;;7.07;4.68;;;0.60;99.90;;;;;;5056415;28;20063;-81
2022/03/08 01:36:43;;;;;;;8.43;4.90;;;0.50;99.90;;;;;;5045747;28;20492;-81
2022/03/08 01:39:09;;;;;;;7.93;4.90;;;0.50;99.90;;;;;;5065357;28;20052;-80
2022/03/08 01:41:35;;;;;;;7.07;4.53;;;0.90;99.90;;;;;;5049678;28;20089;-80
2022/03/08 01:44:00;;;;;;;6.93;4.88;;;0.40;99.90;;;;;;5062288;28;20098;-80
2022/03/08 01:46:26;;;;;;;6.45;4.93;;;0.50;99.90;;;;;;5065795;28;20431;-80
2022/03/08 01:48:51;;;;;;;9.02;5.00;;;0.50;99.90;;;;;;5043735;28;20036;-80
2022/03/08 01:51:18;;;;;;;9.43;5.78;;;0.40;99.90;;;;;;5064058;28;20036;-80
2022/03/08 01:53:44;;;;;;;8.55;5.43;;;0.30;99.90;;;;;;5058115;28;20380;-80
2022/03/08 01:56:10;;;;;;;7.00;5.53;;;0.70;99.90;;;;;;5056484;28;20045;-80
2022/03/08 01:58:36;;;;;;;9.10;5.53;;;0.40;99.90;;;;;;5066152;28;20051;-80
2022/03/08 02:01:04;;;;;;;7.25;5.20;;;0.30;99.90;;;;;;5064299;28;20502;-80
2022/03/08 02:03:30;;;;;;;7.78;5.55;;;0.30;99.90;;;;;;5063055;28;20060;-80
2022/03/08 02:05:55;;;;;;;8.27;5.30;;;0.30;99.90;;;;;;5046629;28;20083;-80
2022/03/08 02:08:21;;;;;;;6.60;4.93;;;0.90;99.90;;;;;;5064892;28;20399;-80
2022/03/08 02:10:47;;;;;;;7.20;5.25;;;0.30;99.90;;;;;;5057658;28;20102;-80
2022/03/08 02:13:12;;;;;;;8.48;5.40;;;0.40;99.90;;;;;;5063854;28;20040;-80
2022/03/08 02:15:38;;;;;;;7.53;5.53;;;0.30;99.90;;;;;;5069614;28;20044;-80
2022/03/08 02:18:04;;;;;;;9.95;5.43;;;0.60;99.90;;;;;;5070721;28;20093;-80
2022/03/08 02:20:30;;;;;;;6.60;5.18;;;0.50;99.90;;;;;;5056845;28;22216;-81
2022/03/08 02:22:56;;;;;;;7.40;5.65;;;0.20;99.90;;;;;;5064608;28;20040;-80
2022/03/08 02:25:22;;;;;;;8.13;5.60;;;1.10;99.90;;;;;;5052634;28;20089;-80
2022/03/08 02:27:53;;;;;;;7.55;5.65;;;1.00;99.90;;;;;;5066963;28;20423;-79
2022/03/08 02:30:21;;;;;;;8.20;6.20;;;0.20;99.90;;;;;;5055301;28;20173;-80
2022/03/08 02:32:47;;;;;;;9.00;6.00;;;0.20;99.90;;;;;;5052989;28;20041;-80
2022/03/08 02:35:24;;;;;;;7.90;5.35;;;0.20;99.90;;;;;;5068127;28;20048;-80
2022/03/08 02:37:59;;;;;;;8.85;5.43;;;0.20;99.90;;;;;;5074749;28;20045;-80
2022/03/08 02:40:27;;;;;;;9.43;5.45;;;1.00;99.90;;;;;;5059881;28;20052;-80
2022/03/08 02:42:53;;;;;;;9.45;6.28;;;0.20;99.90;;;;;;5048090;28;20131;-80
2022/03/08 02:45:20;;;;;;;7.65;6.15;;;0.30;99.90;;;;;;5049493;28;20032;-81
2022/03/08 02:47:45;;;;;;;12.02;5.90;;;0.80;99.90;;;;;;5066720;28;20044;-81
2022/03/08 02:50:13;;;;;;;8.63;5.93;;;0.10;99.90;;;;;;5049312;28;20093;-80
2022/03/08 02:52:41;;;;;;;9.70;6.32;;;0.30;99.90;;;;;;5049844;28;20048;-80
2022/03/08 02:55:07;;;;;;;9.00;6.05;;;0.20;99.90;;;;;;5074115;28;20119;-81
2022/03/08 02:57:33;;;;;;;8.32;5.90;;;0.30;99.90;;;;;;5054219;28;20047;-80
2022/03/08 02:59:59;;;;;;;10.02;5.93;;;0.60;99.90;;;;;;5045633;28;20044;-80
2022/03/08 03:02:24;;;;;;;8.85;6.40;;;0.30;99.90;;;;;;5051863;28;20052;-81
2022/03/08 03:04:50;;;;;;;7.93;5.97;;;0.20;99.90;;;;;;5045266;28;20182;-79
2022/03/08 03:07:15;;;;;;;9.95;6.88;;;0.10;99.90;;;;;;5047886;28;20048;-80
2022/03/08 03:09:41;;;;;;;9.27;6.50;;;0.10;99.90;;;;;;5066962;28;20040;-81
2022/03/08 03:12:08;;;;;;;7.75;5.38;;;1.40;99.90;;;;;;5048710;28;20148;-80
2022/03/08 03:14:33;;;;;;;9.25;6.35;;;0.10;99.90;;;;;;5059300;28;20037;-80
2022/03/08 03:16:59;;;;;;;10.75;6.82;;;0.20;99.90;;;;;;5058995;28;20045;-80
2022/03/08 03:19:25;;;;;;;8.15;5.90;;;0.00;99.90;;;;;;5037210;28;20036;-82
2022/03/08 03:21:50;;;;;;;8.35;6.03;;;0.20;99.90;;;;;;5061758;28;20586;-80
2022/03/08 03:24:16;;;;;;;12.27;6.57;;;0.80;99.90;;;;;;5098774;28;20477;-80
2022/03/08 03:26:42;;;;;;;12.40;6.30;;;1.00;99.90;;;;;;5069884;28;20052;-81
2022/03/08 03:29:08;;;;;;;10.35;6.88;;;0.10;99.90;;;;;;5049195;28;20054;-82
2022/03/08 03:31:34;;;;;;;10.82;6.47;;;0.70;99.90;;;;;;5047808;28;20119;-81
2022/03/08 03:33:59;;;;;;;10.10;6.70;;;0.20;99.90;;;;;;5061762;28;20045;-81
2022/03/08 03:36:25;;;;;;;11.85;6.70;;;0.10;99.90;;;;;;5063998;28;20044;-81
2022/03/08 03:38:51;;;;;;;9.13;6.13;;;0.10;99.90;;;;;;5056977;28;20053;-81
2022/03/08 03:41:16;;;;;;;11.55;6.82;;;0.20;99.90;;;;;;5067572;28;20055;-81
2022/03/08 03:43:42;;;;;;;9.68;6.97;;;0.70;99.90;;;;;;5061567;28;20045;-81
2022/03/08 03:46:08;;;;;;;12.15;7.22;;;0.10;99.90;;;;;;5064496;28;20041;-81
2022/03/08 03:48:34;;;;;;;8.32;6.40;;;0.70;99.90;;;;;;5061870;28;20048;-81
2022/03/08 03:51:00;;;;;;;9.30;6.68;;;0.10;99.90;;;;;;5064890;28;20036;-81
2022/03/08 03:53:25;;;;;;;12.35;7.43;;;0.10;99.90;;;;;;5060557;28;20032;-80
2022/03/08 03:55:51;;;;;;;13.05;6.82;;;0.00;99.90;;;;;;5068019;28;20097;-81
2022/03/08 03:58:17;;;;;;;11.60;7.00;;;0.00;99.90;;;;;;5050887;28;20086;-81
2022/03/08 04:00:42;;;;;;;10.88;7.35;;;0.00;99.90;;;;;;5066713;28;20224;-80
2022/03/08 04:03:08;;;;;;;8.30;6.75;;;0.00;99.90;;;;;;5047912;28;20056;-81
2022/03/08 04:05:34;;;;;;;11.07;7.45;;;0.00;99.90;;;;;;5091010;28;20036;-81
2022/03/08 04:08:00;;;;;;;13.65;7.13;;;0.00;99.90;;;;;;5062159;28;20534;-81
2022/03/08 04:10:25;;;;;;;13.63;6.82;;;-0.10;99.90;;;;;;5063990;28;20048;-81
2022/03/08 04:12:51;;;;;;;12.07;7.15;;;0.00;99.90;;;;;;5049507;28;20178;-81
2022/03/08 04:15:17;;;;;;;11.85;7.30;;;-0.10;99.90;;;;;;5065101;28;20052;-81
2022/03/08 04:17:43;;;;;;;17.00;7.40;;;1.80;99.90;;;;;;5065811;28;20047;-81
2022/03/08 04:20:10;;;;;;;10.68;6.93;;;0.20;99.90;;;;;;5062844;28;20052;-80
2022/03/08 04:22:36;;;;;;;13.90;7.22;;;-0.10;99.90;;;;;;5045993;28;20468;-81
2022/03/08 04:25:03;;;;;;;14.35;7.28;;;-0.20;99.90;;;;;;5050492;28;20040;-81
2022/03/08 04:27:29;;;;;;;11.20;6.97;;;-0.10;99.90;;;;;;5051019;28;20044;-81
2022/03/08 04:29:54;;;;;;;12.15;8.07;;;-0.30;99.90;;;;;;5067552;28;20056;-80
2022/03/08 04:32:20;;;;;;;13.25;8.15;;;0.50;99.90;;;;;;5065015;28;20194;-81
2022/03/08 04:34:46;;;;;;;14.73;7.22;;;-0.30;99.90;;;;;;5052435;28;20052;-80
2022/03/08 04:37:11;;;;;;;14.05;8.38;;;1.60;99.90;;;;;;5068782;28;20052;-81
2022/03/08 04:39:37;;;;;;;11.98;8.32;;;-0.30;99.90;;;;;;5050242;28;20684;-80
2022/03/08 04:42:03;;;;;;;13.27;8.32;;;0.20;99.90;;;;;;5065871;28;20131;-81
2022/03/08 04:44:28;;;;;;;12.20;7.53;;;-0.30;99.90;;;;;;5048347;28;20459;-81
2022/03/08 04:46:54;;;;;;;12.38;7.80;;;-0.30;99.90;;;;;;5068147;28;20074;-81
2022/03/08 04:49:20;;;;;;;12.35;8.45;;;-0.30;99.90;;;;;;5099711;28;20044;-80
2022/03/08 04:51:45;;;;;;;10.23;7.65;;;-0.30;99.90;;;;;;5044725;28;20036;-81
2022/03/08 04:54:11;;;;;;;14.70;8.13;;;-0.30;99.90;;;;;;5065428;28;20073;-81
2022/03/08 04:56:36;;;;;;;13.23;8.30;;;-0.30;99.90;;;;;;5060313;28;20051;-81
2022/03/08 04:59:03;;;;;;;14.88;7.90;;;-0.30;99.90;;;;;;5060458;28;20052;-81
2022/03/08 05:01:28;;;;;;;10.63;7.72;;;0.20;99.90;;;;;;5058147;28;20119;-81
2022/03/08 05:03:54;;;;;;;13.82;8.48;;;0.40;99.90;;;;;;5061905;28;20127;-80
2022/03/08 05:06:20;;;;;;;11.23;7.85;;;-0.10;99.90;;;;;;5074455;28;20403;-81
2022/03/08 05:08:45;;;;;;;11.90;8.18;;;-0.20;99.90;;;;;;5067040;28;20045;-81
2022/03/08 05:11:11;;;;;;;14.70;8.85;;;-0.20;99.90;;;;;;5046896;28;20518;-81
2022/03/08 05:13:37;;;;;;;12.13;8.55;;;-0.20;99.90;;;;;;5066176;28;20040;-81
2022/03/08 05:16:04;;;;;;;12.40;8.68;;;0.30;99.90;;;;;;5064981;28;20486;-81
2022/03/08 05:18:29;;;;;;;18.42;9.27;;;-0.30;99.90;;;;;;5064943;28;20072;-80
2022/03/08 05:20:55;;;;;;;12.60;8.70;;;-0.40;99.90;;;;;;5044029;28;20467;-80
2022/03/08 05:23:21;;;;;;;13.73;8.35;;;-0.40;99.90;;;;;;5062290;28;20048;-81
2022/03/08 05:25:46;;;;;;;13.15;8.73;;;-0.40;99.90;;;;;;5072244;28;20149;-81
2022/03/08 05:28:12;;;;;;;14.27;8.85;;;-0.40;99.90;;;;;;5033326;28;20547;-80
2022/03/08 05:30:38;;;;;;;14.80;9.23;;;-0.50;99.90;;;;;;5057977;28;20044;-81
2022/03/08 05:33:04;;;;;;;14.32;8.85;;;-0.40;99.90;;;;;;5041842;28;20476;-81
2022/03/08 05:35:30;;;;;;;13.32;10.13;;;-0.50;99.90;;;;;;5066321;28;20052;-81
2022/03/08 05:37:55;;;;;;;19.25;9.32;;;-0.40;99.90;;;;;;5063926;28;20392;-81
2022/03/08 05:40:21;;;;;;;15.65;10.10;;;-0.30;99.90;;;;;;5056786;28;20048;-80
2022/03/08 05:42:47;;;;;;;14.60;9.95;;;-0.40;99.90;;;;;;5065257;28;20048;-79
2022/03/08 05:45:13;;;;;;;15.65;9.43;;;-0.20;99.90;;;;;;5066525;28;20051;-80
2022/03/08 05:47:40;;;;;;;14.38;8.60;;;-0.40;99.90;;;;;;5066384;28;20468;-81
2022/03/08 05:50:07;;;;;;;13.48;8.88;;;-0.30;99.90;;;;;;5068419;28;20047;-80
2022/03/08 05:52:33;;;;;;;14.45;8.98;;;-0.30;99.90;;;;;;5048758;28;20063;-80
2022/03/08 05:55:02;;;;;;;14.82;9.23;;;-0.30;99.90;;;;;;5066620;28;20036;-81
2022/03/08 05:57:27;;;;;;;14.98;9.73;;;1.60;99.90;;;;;;5067186;28;20503;-79
2022/03/08 05:59:53;;;;;;;15.25;9.95;;;-0.40;99.90;;;;;;5066339;28;20040;-80
2022/03/08 06:02:21;;;;;;;14.63;8.80;;;-0.30;99.90;;;;;;5099634;28;20085;-79
2022/03/08 06:04:46;;;;;;;18.70;9.35;;;-0.60;99.90;;;;;;5070975;28;20495;-80
2022/03/08 06:07:12;;;;;;;15.50;9.88;;;-0.50;99.90;;;;;;5067111;28;20218;-80
2022/03/08 06:09:37;;;;;;;14.50;9.30;;;-0.50;99.90;;;;;;5050586;28;20400;-79
2022/03/08 06:12:04;;;;;;;13.73;9.82;;;-0.50;99.90;;;;;;5066014;28;20618;-80
2022/03/08 06:14:30;;;;;;;17.08;9.98;;;-0.50;99.90;;;;;;5049571;28;20041;-80
2022/03/08 06:16:56;;;;;;;15.40;9.50;;;0.10;99.90;;;;;;5049445;28;20445;-81
2022/03/08 06:19:22;;;;;;;14.40;9.65;;;-0.60;99.90;;;;;;5065820;28;20049;-80
2022/03/08 06:21:47;;;;;;;12.65;8.93;;;-0.60;99.90;;;;;;5048483;28;20040;-80
2022/03/08 06:24:13;;;;;;;15.18;9.70;;;-0.20;99.90;;;;;;5068842;28;20059;-79
2022/03/08 06:26:39;;;;;;;14.27;9.60;;;0.40;99.90;;;;;;5048746;28;20071;-80
2022/03/08 06:29:06;;;;;;;16.77;9.43;;;-0.60;99.90;;;;;;5068409;28;20052;-80
2022/03/08 06:31:32;;;;;;;14.65;8.95;;;-0.50;99.90;;;;;;5051359;28;20087;-80
2022/03/08 06:33:58;;;;;;;15.25;9.45;;;-0.60;99.90;;;;;;5068415;28;20139;-80
2022/03/08 06:36:23;;;;;;;13.98;9.60;;;-0.50;99.90;;;;;;5071091;28;20174;-80
2022/03/08 06:38:49;;;;;;;15.48;10.15;;;-0.40;99.90;;;;;;5068044;28;20045;-80
2022/03/08 06:41:14;;;;;;;15.10;9.40;;;0.10;99.90;;;;;;5059255;28;20497;-81
2022/03/08 06:43:40;;;;;;;17.75;9.45;;;-0.60;99.90;;;;;;5068515;28;20045;-81
2022/03/08 06:46:06;;;;;;;13.27;9.88;;;-0.60;99.90;;;;;;5063305;28;20045;-81
2022/03/08 06:48:32;;;;;;;15.82;10.10;;;0.10;99.90;;;;;;5063196;28;20083;-81
2022/03/08 06:50:58;;;;;;;13.25;9.65;;;-0.50;99.90;;;;;;5065642;28;20044;-81
2022/03/08 06:53:23;;;;;;;16.40;10.15;;;-0.50;99.90;;;;;;5071149;28;20029;-81
2022/03/08 06:55:49;;;;;;;12.68;8.95;;;-0.50;99.90;;;;;;5044483;28;20450;-82
2022/03/08 06:58:14;;;;;;;15.57;9.90;;;-0.40;99.90;;;;;;4709210;28;10000465;-80
2022/03/08 07:00:40;;;;;;;13.23;10.20;;;-0.40;99.90;;;;;;5065997;28;20046;-79
2022/03/08 07:03:06;;;;;;;19.15;9.60;;;-0.40;99.90;;;;;;5068587;28;20077;-79
2022/03/08 07:05:32;;;;;;;14.73;9.50;;;0.10;99.90;;;;;;5067651;28;20036;-80
2022/03/08 07:07:57;;;;;;;20.58;9.85;;;-0.10;99.90;;;;;;5056408;28;20490;-80
2022/03/08 07:10:23;;;;;;;12.35;9.32;;;-0.40;99.90;;;;;;5064966;28;20076;-79
2022/03/08 07:12:49;;;;;;;17.25;9.68;;;2.10;99.90;;;;;;5041116;28;20048;-79
2022/03/08 07:15:15;;;;;;;17.77;10.23;;;-0.20;99.90;;;;;;5072549;28;20042;-80
2022/03/08 07:17:47;;;;;;;14.60;8.93;;;-0.20;99.90;;;;;;5050708;28;20041;-79
2022/03/08 07:20:14;;;;;;;17.52;9.82;;;-0.10;99.90;;;;;;5053955;28;20127;-80
2022/03/08 07:22:40;;;;;;;19.15;9.48;;;0.40;99.90;;;;;;5074543;28;20620;-80
2022/03/08 07:25:07;;;;;;;12.50;8.85;;;-0.10;99.90;;;;;;5067555;28;20475;-80
2022/03/08 07:27:33;;;;;;;16.52;10.38;;;0.10;99.90;;;;;;5050494;28;20155;-80
2022/03/08 07:29:58;;;;;;;14.70;9.90;;;0.00;99.90;;;;;;5067188;28;20159;-81
2022/03/08 07:32:24;;;;;;;13.63;10.30;;;1.40;99.90;;;;;;5073958;28;20132;-81
2022/03/08 07:34:49;;;;;;;18.73;12.30;;;0.20;99.90;;;;;;5067181;28;20407;-80
2022/03/08 07:37:15;;;;;;;14.80;9.85;;;-0.20;99.90;;;;;;5066420;28;20079;-80
2022/03/08 07:39:41;;;;;;;28.63;16.25;;;0.30;99.90;;;;;;5049578;28;20127;-81
2022/03/08 07:42:06;;;;;;;20.65;13.43;;;0.40;99.90;;;;;;5067297;28;20044;-80
2022/03/08 07:44:32;;;;;;;19.13;12.00;;;0.70;99.90;;;;;;5049990;28;20040;-81
2022/03/08 07:46:59;;;;;;;15.93;10.02;;;0.50;99.90;;;;;;5061860;28;20048;-80
2022/03/08 07:49:25;;;;;;;18.25;11.07;;;0.60;99.90;;;;;;5068621;28;20043;-81
2022/03/08 07:51:51;;;;;;;26.35;13.95;;;0.70;99.90;;;;;;5055104;28;20041;-81
2022/03/08 07:54:18;;;;;;;18.67;10.95;;;0.70;99.90;;;;;;5053740;28;20053;-81
2022/03/08 07:56:44;;;;;;;49.83;26.02;;;0.80;99.90;;;;;;5068590;28;20064;-80
2022/03/08 07:59:11;;;;;;;23.83;12.48;;;0.90;99.90;;;;;;5051590;28;20456;-80
2022/03/08 08:01:36;;;;;;;18.85;11.57;;;1.00;99.90;;;;;;5069091;28;20106;-81
2022/03/08 08:04:02;;;;;;;30.45;16.05;;;1.10;99.90;;;;;;5069612;28;20518;-81
2022/03/08 08:06:28;;;;;;;36.70;21.80;;;1.20;99.90;;;;;;5068343;28;20383;-81
2022/03/08 08:08:53;;;;;;;40.55;21.92;;;1.20;99.90;;;;;;5073400;28;20093;-80
2022/03/08 08:11:19;;;;;;;15.85;10.13;;;1.30;99.90;;;;;;5067959;28;20054;-80
2022/03/08 08:13:45;;;;;;;28.17;15.07;;;1.30;99.90;;;;;;5067838;28;20115;-81
2022/03/08 08:16:10;;;;;;;14.73;8.93;;;1.40;99.90;;;;;;5068998;28;20089;-81
2022/03/08 08:18:36;;;;;;;16.75;9.95;;;1.60;99.90;;;;;;5078212;28;20122;-81
2022/03/08 08:21:02;;;;;;;24.02;14.40;;;1.60;99.90;;;;;;5074615;28;20205;-80
2022/03/08 08:23:27;;;;;;;15.93;10.18;;;1.70;99.90;;;;;;5069982;28;20086;-81
2022/03/08 08:25:53;;;;;;;26.08;16.88;;;1.80;99.90;;;;;;5065266;28;20067;-80
2022/03/08 08:28:19;;;;;;;20.83;10.93;;;2.20;99.90;;;;;;5074792;28;20056;-81
2022/03/08 08:30:44;;;;;;;16.83;10.98;;;2.00;99.90;;;;;;5073025;28;20052;-81
2022/03/08 08:33:10;;;;;;;16.27;10.50;;;2.40;99.90;;;;;;5074618;28;20488;-81
2022/03/08 08:35:36;;;;;;;16.77;10.98;;;2.20;99.90;;;;;;5069775;28;20365;-80
2022/03/08 08:38:01;;;;;;;23.08;12.70;;;3.00;99.90;;;;;;5076903;28;20041;-80
2022/03/08 08:40:28;;;;;;;12.57;8.32;;;2.40;99.90;;;;;;5057577;28;20029;-81
2022/03/08 08:42:53;;;;;;;11.40;8.50;;;2.50;99.90;;;;;;5069140;28;20051;-80
2022/03/08 08:45:19;;;;;;;10.27;8.32;;;2.70;99.90;;;;;;5072968;28;20048;-81
2022/03/08 08:47:45;;;;;;;16.02;9.77;;;2.80;99.90;;;;;;5052182;28;20037;-81
2022/03/08 08:50:11;;;;;;;18.63;11.73;;;2.90;99.90;;;;;;5075294;28;20467;-81
2022/03/08 08:52:36;;;;;;;27.65;17.25;;;3.60;99.90;;;;;;5075246;28;20044;-80
2022/03/08 08:55:02;;;;;;;12.25;9.60;;;3.10;99.90;;;;;;5069232;28;20051;-81
2022/03/08 08:57:28;;;;;;;56.28;31.10;;;3.10;99.90;;;;;;5070073;28;20032;-81
2022/03/08 08:59:54;;;;;;;26.98;15.77;;;3.30;99.90;;;;;;5063076;28;20093;-81
2022/03/08 09:02:19;;;;;;;25.48;16.13;;;3.30;99.90;;;;;;5069277;28;20047;-80
2022/03/08 09:04:45;;;;;;;19.10;13.27;;;3.40;99.90;;;;;;5059702;28;20054;-81
2022/03/08 09:07:11;;;;;;;22.15;13.10;;;3.50;99.90;;;;;;5069652;28;20123;-81
2022/03/08 09:09:36;;;;;;;38.03;20.00;;;3.60;99.90;;;;;;5068884;28;20045;-81
2022/03/08 09:12:02;;;;;;;15.73;9.98;;;3.50;99.90;;;;;;5070793;28;20047;-81
2022/03/08 09:14:28;;;;;;;12.40;8.63;;;3.80;99.90;;;;;;5080215;28;20032;-82
2022/03/08 09:16:54;;;;;;;12.98;8.50;;;3.90;99.90;;;;;;5066930;28;20045;-81
2022/03/08 09:19:20;;;;;;;15.18;9.45;;;4.10;99.90;;;;;;5076119;28;20033;-81
2022/03/08 09:21:45;;;;;;;36.67;19.08;;;4.50;99.90;;;;;;5069011;28;20701;-82
2022/03/08 09:24:11;;;;;;;22.92;12.52;;;4.30;99.90;;;;;;5058087;28;20491;-81
2022/03/08 09:26:36;;;;;;;41.85;19.67;;;4.30;99.90;;;;;;5072730;28;20124;-81
2022/03/08 09:29:02;;;;;;;27.25;15.77;;;4.40;99.90;;;;;;5068869;28;20506;-82
2022/03/08 09:31:28;;;;;;;17.92;10.52;;;4.30;99.90;;;;;;5068512;28;20047;-80
2022/03/08 09:33:54;;;;;;;13.20;7.28;;;4.50;99.90;;;;;;5077873;28;20033;-82
2022/03/08 09:36:19;;;;;;;10.35;7.82;;;5.00;99.90;;;;;;5069533;28;20599;-80
2022/03/08 09:38:45;;;;;;;11.07;8.25;;;4.70;99.90;;;;;;5059304;28;20052;-82
2022/03/08 09:41:11;;;;;;;11.25;6.68;;;4.70;99.90;;;;;;5059933;28;20108;-81
2022/03/08 09:43:38;;;;;;;9.45;6.35;;;4.90;99.90;;;;;;5070879;28;20560;-81
2022/03/08 09:46:04;;;;;;;8.75;6.15;;;5.00;99.90;;;;;;5068273;28;20055;-81
2022/03/08 09:48:30;;;;;;;8.57;6.20;;;5.10;99.90;;;;;;5069762;28;20037;-81
2022/03/08 09:51:00;;;;;;;7.25;6.28;;;5.20;99.90;;;;;;5098994;28;20056;-81
2022/03/08 09:53:29;;;;;;;8.95;5.95;;;5.20;99.90;;;;;;5068744;28;20044;-80
2022/03/08 09:55:59;;;;;;;8.15;5.55;;;5.20;99.90;;;;;;5068206;28;20048;-81
2022/03/08 09:58:25;;;;;;;10.20;5.78;;;5.50;99.90;;;;;;5063094;28;20041;-81
2022/03/08 10:00:53;;;;;;;6.40;4.93;;;5.40;99.90;;;;;;5045204;28;20403;-81
2022/03/08 10:03:31;;;;;;;5.25;4.57;;;5.50;99.90;;;;;;5067951;28;20553;-81
2022/03/08 10:05:57;;;;;;;6.07;4.90;;;5.60;99.90;;;;;;5067912;28;20048;-81
2022/03/08 10:08:23;;;;;;;7.78;5.65;;;5.70;99.90;;;;;;5064580;28;20045;-80
2022/03/08 10:11:11;;;;;;;7.75;5.10;;;5.80;99.90;;;;;;5070217;28;20041;-81
2022/03/08 10:13:42;;;;;;;6.40;4.88;;;5.90;99.90;;;;;;5061984;28;20039;-81
2022/03/08 10:16:34;;;;;;;5.93;4.95;;;6.00;99.90;;;;;;5050896;28;20043;-80
2022/03/08 10:19:02;;;;;;;5.90;4.90;;;6.00;99.90;;;;;;5065526;28;20630;-80
2022/03/08 10:21:40;;;;;;;5.80;5.15;;;6.10;99.90;;;;;;5065433;28;20557;-80
2022/03/08 10:24:13;;;;;;;14.55;5.57;;;6.10;99.90;;;;;;5051526;28;20040;-80
2022/03/08 10:26:47;;;;;;;7.63;4.60;;;6.30;99.90;;;;;;5100927;28;20119;-81
2022/03/08 10:29:14;;;;;;;7.65;4.93;;;6.30;99.90;;;;;;5068360;28;20135;-80
2022/03/08 10:31:40;;;;;;;5.60;5.05;;;6.40;99.90;;;;;;5043898;28;20102;-81
2022/03/08 10:34:08;;;;;;;5.65;4.22;;;6.50;99.90;;;;;;5070095;28;20036;-80
2022/03/08 10:36:37;;;;;;;4.82;4.32;;;6.60;99.90;;;;;;5076379;28;20094;-81
2022/03/08 10:39:15;;;;;;;7.28;4.57;;;6.60;99.90;;;;;;5097745;28;20045;-82
2022/03/08 10:41:49;;;;;;;4.88;4.38;;;6.80;99.90;;;;;;5099941;28;20128;-81
2022/03/08 10:44:16;;;;;;;7.00;3.92;;;6.90;99.90;;;;;;5054404;28;20052;-81
2022/03/08 10:46:42;;;;;;;5.82;4.38;;;6.90;99.90;;;;;;5069178;28;20094;-82
2022/03/08 10:49:12;;;;;;;5.47;3.65;;;7.10;99.90;;;;;;5071231;28;20500;-81
2022/03/08 10:51:38;;;;;;;5.40;4.20;;;7.10;99.90;;;;;;5067695;28;20049;-81
2022/03/08 10:54:11;;;;;;;5.88;3.88;;;7.20;99.90;;;;;;5053185;28;20411;-81
2022/03/08 10:56:43;;;;;;;5.35;3.85;;;9.10;99.90;;;;;;5055240;28;20043;-80
2022/03/08 10:59:11;;;;;;;5.90;4.25;;;7.40;99.90;;;;;;5064330;28;20051;-80
2022/03/08 11:01:38;;;;;;;10.68;4.03;;;7.80;99.90;;;;;;5065445;28;20120;-81
2022/03/08 11:04:03;;;;;;;4.90;4.32;;;7.50;99.90;;;;;;5061854;28;20044;-81
2022/03/08 11:06:30;;;;;;;5.82;3.67;;;7.60;99.90;;;;;;5060003;28;20067;-81
2022/03/08 11:08:56;;;;;;;6.22;3.92;;;7.70;99.90;;;;;;5054220;28;20036;-80
2022/03/08 11:11:22;;;;;;;4.47;3.58;;;7.80;99.90;;;;;;5054717;28;20369;-81
2022/03/08 11:13:52;;;;;;;6.55;4.55;;;7.90;99.90;;;;;;5071710;28;20117;-82
2022/03/08 11:16:18;;;;;;;6.18;4.15;;;8.00;99.90;;;;;;5075373;28;20076;-81
2022/03/08 11:18:51;;;;;;;5.15;3.33;;;8.10;99.90;;;;;;5071588;28;20079;-81
2022/03/08 11:21:18;;;;;;;3.65;3.35;;;8.30;97.30;;;;;;5071636;28;20047;-81
2022/03/08 11:23:44;;;;;;;3.90;3.50;;;8.30;96.30;;;;;;5071934;28;20048;-81
2022/03/08 11:26:15;;;;;;;3.80;3.10;;;8.30;96.90;;;;;;5071805;28;20052;-81
2022/03/08 11:28:46;;;;;;;4.25;3.25;;;8.40;96.30;;;;;;5072792;28;20539;-81
2022/03/08 11:31:15;;;;;;;4.63;3.35;;;8.50;96.60;;;;;;5062480;28;20094;-81
2022/03/08 11:34:09;;;;;;;4.38;3.60;;;8.50;96.50;;;;;;5038374;28;20123;-82
2022/03/08 11:36:38;;;;;;;9.70;4.10;;;8.70;96.50;;;;;;5064777;28;20127;-82
2022/03/08 11:39:18;;;;;;;4.53;2.97;;;8.80;96.20;;;;;;5070909;28;20056;-82
2022/03/08 11:41:49;;;;;;;4.38;3.65;;;8.80;95.00;;;;;;5068756;28;20136;-83
2022/03/08 11:44:33;;;;;;;5.45;3.25;;;8.90;95.70;;;;;;5077817;28;20045;-82
2022/03/08 11:47:11;;;;;;;4.68;3.35;;;9.00;95.20;;;;;;5101640;28;20083;-83
2022/03/08 11:49:57;;;;;;;3.70;3.00;;;9.10;94.30;;;;;;5071176;28;20067;-82
2022/03/08 11:52:32;;;;;;;4.80;3.75;;;9.20;93.00;;;;;;5045698;28;20552;-82
2022/03/08 11:55:08;;;;;;;4.60;3.85;;;9.30;93.30;;;;;;5068424;28;20048;-82
2022/03/08 11:57:56;;;;;;;3.28;2.97;;;9.30;93.10;;;;;;5069251;28;20545;-82
2022/03/08 12:00:49;;;;;;;3.88;3.47;;;9.40;92.40;;;;;;5072019;28;20052;-82
2022/03/08 12:03:26;;;;;;;5.15;3.97;;;9.50;92.50;;;;;;5070174;28;20055;-83
2022/03/08 12:05:57;;;;;;;5.05;3.70;;;9.60;93.20;;;;;;5070340;28;20484;-82
2022/03/08 12:08:28;;;;;;;5.00;3.60;;;9.70;93.40;;;;;;5073009;28;20079;-84
2022/03/08 12:11:07;;;;;;;4.95;3.65;;;9.20;93.10;;;;;;5053682;28;20125;-84
2022/03/08 12:13:42;;;;;;;4.78;3.53;;;9.90;92.70;;;;;;5056886;28;20036;-82
2022/03/08 12:16:10;;;;;;;6.40;4.07;;;10.00;92.60;;;;;;5071647;28;20052;-84
2022/03/08 12:18:49;;;;;;;6.55;4.00;;;10.10;92.70;;;;;;5075928;28;20043;-84
2022/03/08 12:21:19;;;;;;;4.75;3.40;;;10.20;91.20;;;;;;5071556;28;20071;-85
2022/03/08 12:23:53;;;;;;;4.25;3.85;;;10.20;91.60;;;;;;5074149;28;20054;-84
2022/03/08 12:26:29;;;;;;;4.07;3.40;;;10.30;92.10;;;;;;5048520;28;20094;-82
2022/03/08 12:29:11;;;;;;;3.35;2.85;;;10.50;90.40;;;;;;5053410;28;20484;-82
2022/03/08 12:31:56;;;;;;;4.10;3.40;;;10.50;90.00;;;;;;5062917;28;20825;-82
2022/03/08 12:34:45;;;;;;;6.50;3.50;;;10.60;88.50;;;;;;5053787;28;20047;-83
2022/03/08 12:37:25;;;;;;;29.13;17.80;;;10.60;88.10;;;;;;5070813;28;20053;-81
2022/03/08 12:40:01;;;;;;;5.30;4.40;;;10.70;83.50;;;;;;5079553;28;20040;-84
2022/03/08 12:42:42;;;;;;;39.80;23.90;;;10.70;86.60;;;;;;5075661;28;20036;-84
2022/03/08 12:45:17;;;;;;;19.30;10.95;;;10.80;83.90;;;;;;5069557;28;20408;-85
2022/03/08 12:47:45;;;;;;;6.15;4.47;;;10.90;84.10;;;;;;5053342;28;20045;-84
2022/03/08 12:50:18;;;;;;;8.35;5.32;;;10.90;83.10;;;;;;5070775;28;20127;-84